sensor_id;sensor_type;location;lat;lon;timestamp;temperature;humidity
4293;DHT22;2160;51.172;6.808;2023-04-03T04:01:04;5.60;99.90
4293;DHT22;2160;51.172;6.808;2023-04-03T04:03:33;5.60;99.90
4293;DHT22;2160;51.172;6.808;2023-04-03T04:06:01;5.50;99.90
4293;DHT22;2160;51.172;6.808;2023-04-03T04:08:28;5.50;99.90
4293;DHT22;2160;51.172;6.808;2023-04-03T04:10:55;5.60;99.90
4293;DHT22;2160;51.172;6.808;2023-04-03T04:13:22;5.50;99.90
4293;DHT22;2160;51.172;6.808;2023-04-03T04:15:50;5.70;99.90
4293;DHT22;2160;51.172;6.808;2023-04-03T04:18:19;5.70;99.90
4293;DHT22;2160;51.172;6.808;2023-04-03T04:20:48;5.70;99.90
4293;DHT22;2160;51.172;6.808;2023-04-03T04:23:17;5.50;99.90
4293;DHT22;2160;51.172;6.808;2023-04-03T04:25:46;5.50;99.90
4293;DHT22;2160;51.172;6.808;2023-04-03T04:28:14;5.70;99.90
4293;DHT22;2160;51.172;6.808;2023-04-03T04:30:42;5.50;99.90
4293;DHT22;2160;51.172;6.808;2023-04-03T04:33:10;5.40;99.90
4293;DHT22;2160;51.172;6.808;2023-04-03T04:35:42;5.40;99.90
4293;DHT22;2160;51.172;6.808;2023-04-03T04:38:09;5.80;99.90
4293;DHT22;2160;51.172;6.808;2023-04-03T04:40:37;5.60;99.90
4293;DHT22;2160;51.172;6.808;2023-04-03T04:43:04;5.60;99.90
4293;DHT22;2160;51.172;6.808;2023-04-03T04:45:32;5.80;99.90
4293;DHT22;2160;51.172;6.808;2023-04-03T04:47:59;5.80;99.90
4293;DHT22;2160;51.172;6.808;2023-04-03T04:50:26;5.90;99.90
4293;DHT22;2160;51.172;6.808;2023-04-03T04:52:56;5.90;99.90
4293;DHT22;2160;51.172;6.808;2023-04-03T04:55:23;5.70;99.90
4293;DHT22;2160;51.172;6.808;2023-04-03T04:57:50;5.50;99.90
4293;DHT22;2160;51.172;6.808;2023-04-03T05:00:18;5.50;99.90
4293;DHT22;2160;51.172;6.808;2023-04-03T05:02:45;5.50;99.90
4293;DHT22;2160;51.172;6.808;2023-04-03T05:05:12;5.50;99.90
4293;DHT22;2160;51.172;6.808;2023-04-03T05:07:39;5.40;99.90
4293;DHT22;2160;51.172;6.808;2023-04-03T05:10:09;5.40;99.90
4293;DHT22;2160;51.172;6.808;2023-04-03T05:12:37;5.40;99.90
4293;DHT22;2160;51.172;6.808;2023-04-03T05:15:06;5.40;99.90
4293;DHT22;2160;51.172;6.808;2023-04-03T05:17:33;5.30;99.90
4293;DHT22;2160;51.172;6.808;2023-04-03T05:20:02;5.30;99.90
4293;DHT22;2160;51.172;6.808;2023-04-03T05:22:29;5.30;99.90
4293;DHT22;2160;51.172;6.808;2023-04-03T05:25:03;5.30;99.90
4293;DHT22;2160;51.172;6.808;2023-04-03T05:27:31;5.30;99.90
4293;DHT22;2160;51.172;6.808;2023-04-03T05:29:59;5.30;99.90
4293;DHT22;2160;51.172;6.808;2023-04-03T05:32:26;5.50;99.90
4293;DHT22;2160;51.172;6.808;2023-04-03T05:35:07;5.50;99.90
4293;DHT22;2160;51.172;6.808;2023-04-03T05:37:36;5.50;99.90
4293;DHT22;2160;51.172;6.808;2023-04-03T05:40:04;5.40;99.90
4293;DHT22;2160;51.172;6.808;2023-04-03T05:42:34;5.50;99.90
4293;DHT22;2160;51.172;6.808;2023-04-03T05:45:01;5.50;99.90
4293;DHT22;2160;51.172;6.808;2023-04-03T05:47:28;5.50;99.90
4293;DHT22;2160;51.172;6.808;2023-04-03T05:49:56;5.60;99.90
4293;DHT22;2160;51.172;6.808;2023-04-03T05:52:27;5.50;99.90
4293;DHT22;2160;51.172;6.808;2023-04-03T05:54:55;5.30;99.90
4293;DHT22;2160;51.172;6.808;2023-04-03T05:57:26;5.20;99.90
4293;DHT22;2160;51.172;6.808;2023-04-03T05:59:54;5.10;99.90
4293;DHT22;2160;51.172;6.808;2023-04-03T06:02:26;5.10;99.90
4293;DHT22;2160;51.172;6.808;2023-04-03T06:04:53;5.10;99.90
4293;DHT22;2160;51.172;6.808;2023-04-03T06:07:22;5.20;99.90
4293;DHT22;2160;51.172;6.808;2023-04-03T06:09:49;5.30;99.90
4293;DHT22;2160;51.172;6.808;2023-04-03T06:12:17;5.30;99.90
4293;DHT22;2160;51.172;6.808;2023-04-03T06:14:44;5.40;99.90
4293;DHT22;2160;51.172;6.808;2023-04-03T06:17:15;5.50;99.90
4293;DHT22;2160;51.172;6.808;2023-04-03T06:19:43;5.60;99.90
4293;DHT22;2160;51.172;6.808;2023-04-03T06:22:11;5.60;99.90
4293;DHT22;2160;51.172;6.808;2023-04-03T06:24:38;5.70;99.90
4293;DHT22;2160;51.172;6.808;2023-04-03T06:27:05;5.90;99.90
4293;DHT22;2160;51.172;6.808;2023-04-03T06:29:32;6.00;99.90
4293;DHT22;2160;51.172;6.808;2023-04-03T06:31:59;5.60;99.90
4293;DHT22;2160;51.172;6.808;2023-04-03T06:34:28;5.60;99.90
4293;DHT22;2160;51.172;6.808;2023-04-03T06:36:55;5.80;99.90
4293;DHT22;2160;51.172;6.808;2023-04-03T06:39:22;5.70;99.90
4293;DHT22;2160;51.172;6.808;2023-04-03T06:41:50;5.80;99.90
4293;DHT22;2160;51.172;6.808;2023-04-03T06:44:18;6.00;99.90
4293;DHT22;2160;51.172;6.808;2023-04-03T06:46:45;5.70;99.90
4293;DHT22;2160;51.172;6.808;2023-04-03T06:49:13;5.80;99.90
4293;DHT22;2160;51.172;6.808;2023-04-03T06:51:42;5.90;99.90
4293;DHT22;2160;51.172;6.808;2023-04-03T06:54:09;6.00;99.90
4293;DHT22;2160;51.172;6.808;2023-04-03T06:56:36;5.90;99.90
4293;DHT22;2160;51.172;6.808;2023-04-03T06:59:03;6.10;99.90
4293;DHT22;2160;51.172;6.808;2023-04-03T07:01:30;6.00;99.90
4293;DHT22;2160;51.172;6.808;2023-04-03T07:03:58;6.20;99.90
4293;DHT22;2160;51.172;6.808;2023-04-03T07:06:25;6.20;99.90
4293;DHT22;2160;51.172;6.808;2023-04-03T07:08:55;6.10;99.90
4293;DHT22;2160;51.172;6.808;2023-04-03T07:11:22;6.20;99.90
4293;DHT22;2160;51.172;6.808;2023-04-03T07:13:49;6.30;99.90
4293;DHT22;2160;51.172;6.808;2023-04-03T07:16:17;6.40;99.90
4293;DHT22;2160;51.172;6.808;2023-04-03T07:18:44;6.40;99.90
4293;DHT22;2160;51.172;6.808;2023-04-03T07:21:12;6.30;99.90
4293;DHT22;2160;51.172;6.808;2023-04-03T07:23:39;6.30;99.90
4293;DHT22;2160;51.172;6.808;2023-04-03T07:26:07;6.20;99.90
4293;DHT22;2160;51.172;6.808;2023-04-03T07:28:35;6.30;99.90
4293;DHT22;2160;51.172;6.808;2023-04-03T07:31:04;6.30;99.90
4293;DHT22;2160;51.172;6.808;2023-04-03T07:33:35;6.40;99.90
4293;DHT22;2160;51.172;6.808;2023-04-03T07:36:03;6.40;99.90
4293;DHT22;2160;51.172;6.808;2023-04-03T07:38:30;6.40;99.90
4293;DHT22;2160;51.172;6.808;2023-04-03T07:40:57;6.40;99.90
4293;DHT22;2160;51.172;6.808;2023-04-03T07:43:25;6.40;99.90
4293;DHT22;2160;51.172;6.808;2023-04-03T07:45:53;6.50;99.90
4293;DHT22;2160;51.172;6.808;2023-04-03T07:48:21;6.60;99.90
4293;DHT22;2160;51.172;6.808;2023-04-03T07:50:48;6.50;99.90
4293;DHT22;2160;51.172;6.808;2023-04-03T07:53:16;6.60;99.90
4293;DHT22;2160;51.172;6.808;2023-04-03T07:55:46;6.80;99.90
4293;DHT22;2160;51.172;6.808;2023-04-03T07:58:15;7.00;99.90
4293;DHT22;2160;51.172;6.808;2023-04-03T08:00:45;7.10;99.90
4293;DHT22;2160;51.172;6.808;2023-04-03T08:03:13;7.20;99.90
4293;DHT22;2160;51.172;6.808;2023-04-03T08:05:44;7.20;99.90
4293;DHT22;2160;51.172;6.808;2023-04-03T08:08:12;7.30;99.90
4293;DHT22;2160;51.172;6.808;2023-04-03T08:10:40;7.60;99.90
4293;DHT22;2160;51.172;6.808;2023-04-03T08:13:08;7.40;99.90
4293;DHT22;2160;51.172;6.808;2023-04-03T08:15:36;7.30;99.90
4293;DHT22;2160;51.172;6.808;2023-04-03T08:18:04;7.30;99.90
4293;DHT22;2160;51.172;6.808;2023-04-03T08:20:31;7.50;99.90
4293;DHT22;2160;51.172;6.808;2023-04-03T08:22:58;7.80;98.20
4293;DHT22;2160;51.172;6.808;2023-04-03T08:25:25;7.70;97.70
4293;DHT22;2160;51.172;6.808;2023-04-03T08:27:52;7.60;96.10
4293;DHT22;2160;51.172;6.808;2023-04-03T08:30:19;7.70;95.50
4293;DHT22;2160;51.172;6.808;2023-04-03T08:32:47;7.60;94.10
4293;DHT22;2160;51.172;6.808;2023-04-03T08:35:16;7.60;94.90
4293;DHT22;2160;51.172;6.808;2023-04-03T08:37:43;7.80;94.30
4293;DHT22;2160;51.172;6.808;2023-04-03T08:40:13;8.00;95.50
4293;DHT22;2160;51.172;6.808;2023-04-03T08:42:52;8.10;91.40
4293;DHT22;2160;51.172;6.808;2023-04-03T08:45:26;7.90;90.00
4293;DHT22;2160;51.172;6.808;2023-04-03T08:47:59;8.00;90.80
4293;DHT22;2160;51.172;6.808;2023-04-03T08:50:35;7.90;89.70
4293;DHT22;2160;51.172;6.808;2023-04-03T08:53:06;7.80;86.00
4293;DHT22;2160;51.172;6.808;2023-04-03T08:55:43;7.90;84.80
4293;DHT22;2160;51.172;6.808;2023-04-03T08:58:12;8.20;88.30
4293;DHT22;2160;51.172;6.808;2023-04-03T09:00:44;8.30;89.30
4293;DHT22;2160;51.172;6.808;2023-04-03T09:03:14;8.50;84.00
4293;DHT22;2160;51.172;6.808;2023-04-03T09:05:47;8.50;82.30
4293;DHT22;2160;51.172;6.808;2023-04-03T09:08:22;8.50;82.80
4293;DHT22;2160;51.172;6.808;2023-04-03T09:11:03;8.50;83.10
4293;DHT22;2160;51.172;6.808;2023-04-03T09:13:36;8.50;83.70
4293;DHT22;2160;51.172;6.808;2023-04-03T09:16:20;8.50;83.40
4293;DHT22;2160;51.172;6.808;2023-04-03T09:18:55;8.40;83.40
4293;DHT22;2160;51.172;6.808;2023-04-03T09:21:29;8.70;85.90
4293;DHT22;2160;51.172;6.808;2023-04-03T09:23:59;8.80;84.60
4293;DHT22;2160;51.172;6.808;2023-04-03T09:26:31;8.80;81.80
4293;DHT22;2160;51.172;6.808;2023-04-03T09:29:06;8.70;80.80
4293;DHT22;2160;51.172;6.808;2023-04-03T09:31:37;8.90;85.60
4293;DHT22;2160;51.172;6.808;2023-04-03T09:34:08;9.00;85.40
4293;DHT22;2160;51.172;6.808;2023-04-03T09:36:46;9.20;89.50
4293;DHT22;2160;51.172;6.808;2023-04-03T09:39:15;9.30;89.30
4293;DHT22;2160;51.172;6.808;2023-04-03T09:41:55;9.20;83.20
4293;DHT22;2160;51.172;6.808;2023-04-03T09:44:25;9.30;85.00
4293;DHT22;2160;51.172;6.808;2023-04-03T09:46:52;9.50;87.10
4293;DHT22;2160;51.172;6.808;2023-04-03T09:49:21;9.40;83.90
4293;DHT22;2160;51.172;6.808;2023-04-03T09:51:49;9.30;78.90
4293;DHT22;2160;51.172;6.808;2023-04-03T09:54:26;9.20;83.40
4293;DHT22;2160;51.172;6.808;2023-04-03T09:56:54;9.40;80.40
4293;DHT22;2160;51.172;6.808;2023-04-03T09:59:22;9.40;81.70
4293;DHT22;2160;51.172;6.808;2023-04-03T10:01:58;9.30;74.80
4293;DHT22;2160;51.172;6.808;2023-04-03T10:04:38;9.50;77.50
4293;DHT22;2160;51.172;6.808;2023-04-03T10:07:27;9.90;77.50
4293;DHT22;2160;51.172;6.808;2023-04-03T10:09:56;10.00;74.10
4293;DHT22;2160;51.172;6.808;2023-04-03T10:12:23;10.10;76.60
4293;DHT22;2160;51.172;6.808;2023-04-03T10:14:54;10.10;73.90
4293;DHT22;2160;51.172;6.808;2023-04-03T10:17:35;10.20;75.00
4293;DHT22;2160;51.172;6.808;2023-04-03T10:20:08;10.40;71.20
4293;DHT22;2160;51.172;6.808;2023-04-03T10:22:43;10.40;65.00
4293;DHT22;2160;51.172;6.808;2023-04-03T10:25:20;10.50;64.90
4293;DHT22;2160;51.172;6.808;2023-04-03T10:27:53;10.60;62.90
4293;DHT22;2160;51.172;6.808;2023-04-03T10:30:36;10.80;64.90
4293;DHT22;2160;51.172;6.808;2023-04-03T10:33:17;10.90;68.30
4293;DHT22;2160;51.172;6.808;2023-04-03T10:35:53;10.80;59.40
4293;DHT22;2160;51.172;6.808;2023-04-03T10:38:32;10.70;59.70
4293;DHT22;2160;51.172;6.808;2023-04-03T10:41:05;10.70;59.90
4293;DHT22;2160;51.172;6.808;2023-04-03T10:43:42;10.60;56.60
4293;DHT22;2160;51.172;6.808;2023-04-03T10:46:14;10.70;59.00
4293;DHT22;2160;51.172;6.808;2023-04-03T10:48:54;11.00;59.90
4293;DHT22;2160;51.172;6.808;2023-04-03T10:51:31;11.30;59.40
4293;DHT22;2160;51.172;6.808;2023-04-03T10:54:05;11.10;61.20
4293;DHT22;2160;51.172;6.808;2023-04-03T10:56:38;11.20;58.90
4293;DHT22;2160;51.172;6.808;2023-04-03T10:59:15;11.20;56.30
4293;DHT22;2160;51.172;6.808;2023-04-03T11:01:46;11.40;61.10
4293;DHT22;2160;51.172;6.808;2023-04-03T11:04:16;11.30;57.00
4293;DHT22;2160;51.172;6.808;2023-04-03T11:06:48;11.40;58.20
4293;DHT22;2160;51.172;6.808;2023-04-03T11:09:24;11.40;55.00
4293;DHT22;2160;51.172;6.808;2023-04-03T11:11:56;11.40;57.00
4293;DHT22;2160;51.172;6.808;2023-04-03T11:14:27;11.40;55.30
4293;DHT22;2160;51.172;6.808;2023-04-03T11:17:04;11.40;56.00
4293;DHT22;2160;51.172;6.808;2023-04-03T11:19:36;11.50;56.60
4293;DHT22;2160;51.172;6.808;2023-04-03T11:22:10;11.60;56.60
4293;DHT22;2160;51.172;6.808;2023-04-03T11:24:46;11.70;62.70
4293;DHT22;2160;51.172;6.808;2023-04-03T11:27:22;11.70;59.20
4293;DHT22;2160;51.172;6.808;2023-04-03T11:29:52;11.70;59.40
4293;DHT22;2160;51.172;6.808;2023-04-03T11:32:42;11.70;58.70
4293;DHT22;2160;51.172;6.808;2023-04-03T11:35:17;11.80;56.00
4293;DHT22;2160;51.172;6.808;2023-04-03T11:37:47;12.00;55.60
4293;DHT22;2160;51.172;6.808;2023-04-03T11:40:24;12.10;55.10
4293;DHT22;2160;51.172;6.808;2023-04-03T11:42:53;12.30;54.00
4293;DHT22;2160;51.172;6.808;2023-04-03T11:45:50;12.30;52.00
4293;DHT22;2160;51.172;6.808;2023-04-03T11:48:43;12.30;55.70
4293;DHT22;2160;51.172;6.808;2023-04-03T11:51:41;12.20;53.70
4293;DHT22;2160;51.172;6.808;2023-04-03T11:57:45;12.30;54.10
4293;DHT22;2160;51.172;6.808;2023-04-03T12:00:48;12.30;52.60
4293;DHT22;2160;51.172;6.808;2023-04-03T12:10:12;12.50;52.00
4293;DHT22;2160;51.172;6.808;2023-04-03T12:12:42;12.50;48.40
4293;DHT22;2160;51.172;6.808;2023-04-03T12:18:57;12.40;47.50
4293;DHT22;2160;51.172;6.808;2023-04-03T12:24:27;12.30;49.00
4293;DHT22;2160;51.172;6.808;2023-04-03T12:27:05;12.70;46.90
4293;DHT22;2160;51.172;6.808;2023-04-03T12:29:35;13.00;46.80
4293;DHT22;2160;51.172;6.808;2023-04-03T12:32:11;13.10;45.50
4293;DHT22;2160;51.172;6.808;2023-04-03T12:34:55;12.90;41.30
4293;DHT22;2160;51.172;6.808;2023-04-03T12:37:49;13.00;45.10
4293;DHT22;2160;51.172;6.808;2023-04-03T12:40:25;13.00;42.40
4293;DHT22;2160;51.172;6.808;2023-04-03T12:43:20;13.10;40.40
4293;DHT22;2160;51.172;6.808;2023-04-03T12:45:58;13.10;43.20
4293;DHT22;2160;51.172;6.808;2023-04-03T12:48:29;13.20;42.10
4293;DHT22;2160;51.172;6.808;2023-04-03T12:50:58;13.30;44.30
4293;DHT22;2160;51.172;6.808;2023-04-03T12:53:27;13.10;42.40
4293;DHT22;2160;51.172;6.808;2023-04-03T12:55:57;13.00;41.30
4293;DHT22;2160;51.172;6.808;2023-04-03T12:58:25;12.80;42.00
4293;DHT22;2160;51.172;6.808;2023-04-03T13:01:00;12.60;42.20
4293;DHT22;2160;51.172;6.808;2023-04-03T13:03:28;12.60;42.20
4293;DHT22;2160;51.172;6.808;2023-04-03T13:05:59;12.70;43.10
4293;DHT22;2160;51.172;6.808;2023-04-03T13:08:27;12.90;43.50
4293;DHT22;2160;51.172;6.808;2023-04-03T13:10:57;12.90;45.00
4293;DHT22;2160;51.172;6.808;2023-04-03T13:13:25;13.10;45.80
4293;DHT22;2160;51.172;6.808;2023-04-03T13:15:53;13.10;42.00
4293;DHT22;2160;51.172;6.808;2023-04-03T13:18:29;13.20;43.50
4293;DHT22;2160;51.172;6.808;2023-04-03T13:21:02;12.90;43.40
4293;DHT22;2160;51.172;6.808;2023-04-03T13:23:30;12.90;43.40
4293;DHT22;2160;51.172;6.808;2023-04-03T13:25:58;13.00;44.10
4293;DHT22;2160;51.172;6.808;2023-04-03T13:28:30;13.10;44.60
4293;DHT22;2160;51.172;6.808;2023-04-03T13:31:06;13.20;45.50
4293;DHT22;2160;51.172;6.808;2023-04-03T13:33:36;13.20;44.50
4293;DHT22;2160;51.172;6.808;2023-04-03T13:36:07;13.50;44.90
4293;DHT22;2160;51.172;6.808;2023-04-03T13:38:34;13.30;43.60
4293;DHT22;2160;51.172;6.808;2023-04-03T13:41:04;13.10;42.70
4293;DHT22;2160;51.172;6.808;2023-04-03T13:43:35;13.10;43.40
4293;DHT22;2160;51.172;6.808;2023-04-03T13:46:25;13.00;44.80
4293;DHT22;2160;51.172;6.808;2023-04-03T13:48:54;13.10;42.70
4293;DHT22;2160;51.172;6.808;2023-04-03T13:51:28;13.40;43.40
4293;DHT22;2160;51.172;6.808;2023-04-03T13:53:57;13.20;43.10
4293;DHT22;2160;51.172;6.808;2023-04-03T13:56:30;13.10;43.50
4293;DHT22;2160;51.172;6.808;2023-04-03T13:59:02;13.30;44.90
4293;DHT22;2160;51.172;6.808;2023-04-03T14:01:41;13.10;44.10
4293;DHT22;2160;51.172;6.808;2023-04-03T14:04:17;13.10;44.60
4293;DHT22;2160;51.172;6.808;2023-04-03T14:06:47;13.20;45.00
4293;DHT22;2160;51.172;6.808;2023-04-03T14:09:15;13.20;45.20
4293;DHT22;2160;51.172;6.808;2023-04-03T14:11:43;13.20;45.00
4293;DHT22;2160;51.172;6.808;2023-04-03T14:14:14;13.40;49.00
4293;DHT22;2160;51.172;6.808;2023-04-03T14:16:44;13.40;45.30
4293;DHT22;2160;51.172;6.808;2023-04-03T14:19:19;13.30;45.00
4293;DHT22;2160;51.172;6.808;2023-04-03T14:21:48;13.00;44.70
4293;DHT22;2160;51.172;6.808;2023-04-03T14:24:16;12.80;43.60
4293;DHT22;2160;51.172;6.808;2023-04-03T14:26:44;12.80;44.50
4293;DHT22;2160;51.172;6.808;2023-04-03T14:29:13;12.80;45.10
4293;DHT22;2160;51.172;6.808;2023-04-03T14:31:41;13.00;45.90
4293;DHT22;2160;51.172;6.808;2023-04-03T14:34:10;13.00;45.90
4293;DHT22;2160;51.172;6.808;2023-04-03T14:36:37;13.10;45.10
4293;DHT22;2160;51.172;6.808;2023-04-03T14:39:07;13.40;48.90
4293;DHT22;2160;51.172;6.808;2023-04-03T14:41:34;13.40;45.70
4293;DHT22;2160;51.172;6.808;2023-04-03T14:44:02;13.20;46.30
4293;DHT22;2160;51.172;6.808;2023-04-03T14:46:31;13.40;48.40
4293;DHT22;2160;51.172;6.808;2023-04-03T14:48:59;13.30;46.40
4293;DHT22;2160;51.172;6.808;2023-04-03T14:51:26;13.30;46.00
4293;DHT22;2160;51.172;6.808;2023-04-03T14:53:53;13.30;45.50
4293;DHT22;2160;51.172;6.808;2023-04-03T14:56:24;13.50;48.00
4293;DHT22;2160;51.172;6.808;2023-04-03T14:58:55;13.50;45.80
4293;DHT22;2160;51.172;6.808;2023-04-03T15:01:22;13.50;45.40
4293;DHT22;2160;51.172;6.808;2023-04-03T15:03:50;13.40;45.30
4293;DHT22;2160;51.172;6.808;2023-04-03T15:06:17;13.30;46.10
4293;DHT22;2160;51.172;6.808;2023-04-03T15:08:45;13.40;46.00
4293;DHT22;2160;51.172;6.808;2023-04-03T15:11:13;13.30;45.30
4293;DHT22;2160;51.172;6.808;2023-04-03T15:13:42;13.20;44.50
4293;DHT22;2160;51.172;6.808;2023-04-03T15:16:15;13.00;44.10
4293;DHT22;2160;51.172;6.808;2023-04-03T15:18:43;13.20;46.80
4293;DHT22;2160;51.172;6.808;2023-04-03T15:21:10;13.30;46.40
4293;DHT22;2160;51.172;6.808;2023-04-03T15:23:37;13.10;45.50
4293;DHT22;2160;51.172;6.808;2023-04-03T15:26:04;13.10;45.90
4293;DHT22;2160;51.172;6.808;2023-04-03T15:28:34;13.10;46.60
4293;DHT22;2160;51.172;6.808;2023-04-03T15:31:03;13.20;48.00
4293;DHT22;2160;51.172;6.808;2023-04-03T15:33:31;13.20;46.30
4293;DHT22;2160;51.172;6.808;2023-04-03T15:35:58;12.80;45.50
4293;DHT22;2160;51.172;6.808;2023-04-03T15:38:26;12.70;45.70
4293;DHT22;2160;51.172;6.808;2023-04-03T15:40:53;12.50;46.50
4293;DHT22;2160;51.172;6.808;2023-04-03T15:43:20;12.40;47.80
4293;DHT22;2160;51.172;6.808;2023-04-03T15:45:49;12.50;47.30
4293;DHT22;2160;51.172;6.808;2023-04-03T15:48:18;12.60;47.50
4293;DHT22;2160;51.172;6.808;2023-04-03T15:50:45;12.50;47.20
4293;DHT22;2160;51.172;6.808;2023-04-03T15:53:12;12.40;47.60
4293;DHT22;2160;51.172;6.808;2023-04-03T15:55:39;12.30;47.60
4293;DHT22;2160;51.172;6.808;2023-04-03T15:58:07;12.50;47.60
4293;DHT22;2160;51.172;6.808;2023-04-03T16:00:35;12.40;47.90
4293;DHT22;2160;51.172;6.808;2023-04-03T16:03:06;12.50;48.40
4293;DHT22;2160;51.172;6.808;2023-04-03T16:05:37;12.40;47.80
4293;DHT22;2160;51.172;6.808;2023-04-03T16:08:05;12.10;46.80
4293;DHT22;2160;51.172;6.808;2023-04-03T16:10:33;12.00;47.00
4293;DHT22;2160;51.172;6.808;2023-04-03T16:13:01;11.90;47.20
4293;DHT22;2160;51.172;6.808;2023-04-03T16:15:28;11.70;46.50
4293;DHT22;2160;51.172;6.808;2023-04-03T16:17:56;11.50;47.90
4293;DHT22;2160;51.172;6.808;2023-04-03T16:20:24;11.60;48.10
4293;DHT22;2160;51.172;6.808;2023-04-03T16:22:53;11.70;50.30
4293;DHT22;2160;51.172;6.808;2023-04-03T16:25:22;11.80;48.30
4293;DHT22;2160;51.172;6.808;2023-04-03T16:27:49;11.70;47.70
4293;DHT22;2160;51.172;6.808;2023-04-03T16:30:16;11.60;47.90
4293;DHT22;2160;51.172;6.808;2023-04-03T16:32:43;11.40;46.60
4293;DHT22;2160;51.172;6.808;2023-04-03T16:35:11;11.40;47.80
4293;DHT22;2160;51.172;6.808;2023-04-03T16:37:38;11.50;48.40
4293;DHT22;2160;51.172;6.808;2023-04-03T16:40:08;11.40;47.40
4293;DHT22;2160;51.172;6.808;2023-04-03T16:42:35;11.30;47.70
4293;DHT22;2160;51.172;6.808;2023-04-03T16:45:03;11.20;47.40
4293;DHT22;2160;51.172;6.808;2023-04-03T16:47:30;11.10;47.70
4293;DHT22;2160;51.172;6.808;2023-04-03T16:49:57;11.20;49.10
4293;DHT22;2160;51.172;6.808;2023-04-03T16:52:24;11.10;48.40
4293;DHT22;2160;51.172;6.808;2023-04-03T16:54:51;11.00;48.80
4293;DHT22;2160;51.172;6.808;2023-04-03T16:57:22;11.00;49.20
4293;DHT22;2160;51.172;6.808;2023-04-03T16:59:50;11.10;49.60
4293;DHT22;2160;51.172;6.808;2023-04-03T17:02:31;10.80;49.10
4293;DHT22;2160;51.172;6.808;2023-04-03T17:04:58;10.80;49.30
4293;DHT22;2160;51.172;6.808;2023-04-03T17:07:26;10.80;49.20
4293;DHT22;2160;51.172;6.808;2023-04-03T17:09:53;10.70;49.40
4293;DHT22;2160;51.172;6.808;2023-04-03T17:12:21;10.60;49.60
4293;DHT22;2160;51.172;6.808;2023-04-03T17:14:49;10.80;50.80
4293;DHT22;2160;51.172;6.808;2023-04-03T17:17:20;10.90;52.40
4293;DHT22;2160;51.172;6.808;2023-04-03T17:19:47;10.90;50.60
4293;DHT22;2160;51.172;6.808;2023-04-03T17:22:14;10.90;50.90
4293;DHT22;2160;51.172;6.808;2023-04-03T17:24:42;10.80;50.20
4293;DHT22;2160;51.172;6.808;2023-04-03T17:27:09;10.70;50.30
4293;DHT22;2160;51.172;6.808;2023-04-03T17:29:38;10.70;50.40
4293;DHT22;2160;51.172;6.808;2023-04-03T17:32:05;10.80;50.70
4293;DHT22;2160;51.172;6.808;2023-04-03T17:34:32;10.50;50.50
4293;DHT22;2160;51.172;6.808;2023-04-03T17:37:01;10.30;49.90
4293;DHT22;2160;51.172;6.808;2023-04-03T17:39:28;10.30;50.00
4293;DHT22;2160;51.172;6.808;2023-04-03T17:41:55;10.20;50.30
4293;DHT22;2160;51.172;6.808;2023-04-03T17:44:22;10.30;51.00
4293;DHT22;2160;51.172;6.808;2023-04-03T17:46:50;10.40;51.40
4293;DHT22;2160;51.172;6.808;2023-04-03T17:49:17;10.40;50.90
4293;DHT22;2160;51.172;6.808;2023-04-03T17:51:45;10.40;51.00
4293;DHT22;2160;51.172;6.808;2023-04-03T17:54:12;10.40;50.90
4293;DHT22;2160;51.172;6.808;2023-04-03T17:56:39;10.40;51.40
4293;DHT22;2160;51.172;6.808;2023-04-03T17:59:12;10.30;51.30
4293;DHT22;2160;51.172;6.808;2023-04-03T18:01:39;10.30;51.70
4293;DHT22;2160;51.172;6.808;2023-04-03T18:04:07;10.20;52.30
4293;DHT22;2160;51.172;6.808;2023-04-03T18:06:38;10.00;51.40
4293;DHT22;2160;51.172;6.808;2023-04-03T18:09:09;9.90;52.20
4293;DHT22;2160;51.172;6.808;2023-04-03T18:11:37;10.00;52.10
4293;DHT22;2160;51.172;6.808;2023-04-03T18:14:06;9.90;52.70
4293;DHT22;2160;51.172;6.808;2023-04-03T18:16:34;10.10;52.50
4293;DHT22;2160;51.172;6.808;2023-04-03T18:19:01;10.00;51.10
4293;DHT22;2160;51.172;6.808;2023-04-03T18:21:30;9.80;52.10
4293;DHT22;2160;51.172;6.808;2023-04-03T18:23:57;9.80;52.80
4293;DHT22;2160;51.172;6.808;2023-04-03T18:26:25;9.90;52.70
4293;DHT22;2160;51.172;6.808;2023-04-03T18:28:57;9.90;52.50
4293;DHT22;2160;51.172;6.808;2023-04-03T18:31:26;9.90;52.90
4293;DHT22;2160;51.172;6.808;2023-04-03T18:33:54;9.70;52.40
4293;DHT22;2160;51.172;6.808;2023-04-03T18:36:24;9.60;53.10
4293;DHT22;2160;51.172;6.808;2023-04-03T18:38:53;9.70;53.70
4293;DHT22;2160;51.172;6.808;2023-04-03T18:41:21;9.60;53.20
4293;DHT22;2160;51.172;6.808;2023-04-03T18:43:51;9.60;53.60
4293;DHT22;2160;51.172;6.808;2023-04-03T18:46:18;9.50;53.30
4293;DHT22;2160;51.172;6.808;2023-04-03T18:48:45;9.50;53.70
4293;DHT22;2160;51.172;6.808;2023-04-03T18:51:13;9.60;54.20
4293;DHT22;2160;51.172;6.808;2023-04-03T18:53:40;9.60;53.50
4293;DHT22;2160;51.172;6.808;2023-04-03T18:56:08;9.60;54.10
4293;DHT22;2160;51.172;6.808;2023-04-03T18:58:35;9.60;53.90
4293;DHT22;2160;51.172;6.808;2023-04-03T19:01:03;9.50;54.00
4293;DHT22;2160;51.172;6.808;2023-04-03T19:03:31;9.50;54.50
4293;DHT22;2160;51.172;6.808;2023-04-03T19:05:59;9.60;54.50
4293;DHT22;2160;51.172;6.808;2023-04-03T19:08:26;9.70;54.60
4293;DHT22;2160;51.172;6.808;2023-04-03T19:10:54;9.50;54.90
4293;DHT22;2160;51.172;6.808;2023-04-03T19:13:22;9.60;55.70
4293;DHT22;2160;51.172;6.808;2023-04-03T19:15:49;9.50;56.80
4293;DHT22;2160;51.172;6.808;2023-04-03T19:18:16;9.40;56.10
4293;DHT22;2160;51.172;6.808;2023-04-03T19:20:43;9.30;55.00
4293;DHT22;2160;51.172;6.808;2023-04-03T19:23:10;9.30;55.10
4293;DHT22;2160;51.172;6.808;2023-04-03T19:25:38;9.30;55.20
4293;DHT22;2160;51.172;6.808;2023-04-03T19:28:06;9.50;55.80
4293;DHT22;2160;51.172;6.808;2023-04-03T19:30:36;9.50;55.50
4293;DHT22;2160;51.172;6.808;2023-04-03T19:33:03;9.50;55.20
4293;DHT22;2160;51.172;6.808;2023-04-03T19:35:30;9.40;55.20
4293;DHT22;2160;51.172;6.808;2023-04-03T19:37:58;9.30;55.60
4293;DHT22;2160;51.172;6.808;2023-04-03T19:40:25;9.40;55.80
4293;DHT22;2160;51.172;6.808;2023-04-03T19:42:53;9.10;55.70
4293;DHT22;2160;51.172;6.808;2023-04-03T19:45:20;9.10;56.60
4293;DHT22;2160;51.172;6.808;2023-04-03T19:47:49;9.10;55.80
4293;DHT22;2160;51.172;6.808;2023-04-03T19:50:17;9.10;56.50
4293;DHT22;2160;51.172;6.808;2023-04-03T19:52:44;9.00;56.00
4293;DHT22;2160;51.172;6.808;2023-04-03T19:55:11;8.90;55.80
4293;DHT22;2160;51.172;6.808;2023-04-03T19:57:39;9.10;56.40
4293;DHT22;2160;51.172;6.808;2023-04-03T20:00:07;8.90;56.30
4293;DHT22;2160;51.172;6.808;2023-04-03T20:02:38;8.80;56.30
4293;DHT22;2160;51.172;6.808;2023-04-03T20:05:07;8.70;56.50
4293;DHT22;2160;51.172;6.808;2023-04-03T20:07:35;8.80;56.80
4293;DHT22;2160;51.172;6.808;2023-04-03T20:10:03;8.90;58.50
4293;DHT22;2160;51.172;6.808;2023-04-03T20:12:30;8.80;57.10
4293;DHT22;2160;51.172;6.808;2023-04-03T20:14:57;9.00;57.50
4293;DHT22;2160;51.172;6.808;2023-04-03T20:17:25;8.90;57.40
4293;DHT22;2160;51.172;6.808;2023-04-03T20:19:52;9.00;58.00
4293;DHT22;2160;51.172;6.808;2023-04-03T20:22:27;9.00;58.00
4293;DHT22;2160;51.172;6.808;2023-04-03T20:24:54;9.10;58.50
4293;DHT22;2160;51.172;6.808;2023-04-03T20:27:22;9.10;58.00
4293;DHT22;2160;51.172;6.808;2023-04-03T20:29:49;9.10;58.50
4293;DHT22;2160;51.172;6.808;2023-04-03T20:32:16;9.20;58.80
4293;DHT22;2160;51.172;6.808;2023-04-03T20:34:43;9.40;58.90
4293;DHT22;2160;51.172;6.808;2023-04-03T20:37:11;9.40;59.70
4293;DHT22;2160;51.172;6.808;2023-04-03T20:39:39;9.40;59.20
4293;DHT22;2160;51.172;6.808;2023-04-03T20:42:06;9.30;58.70
4293;DHT22;2160;51.172;6.808;2023-04-03T20:44:33;9.30;60.10